EW7448 Weather Reports


Display with metric or nautical units.
time (UTC)temp
F
wind
direction
speed
MPH
gust
MPH
rain 1hr
in
rain 24hr
in
rain mn
in
humidity
%
barometer
mb
20240304083024 64 48 0.0 0.0 0.01 0.01 0.01 96 1015.8
20240304081523 64 48 0.0 0.0 0.01 0.01 0.01 96 1016.1
20240304080023 65 48 0.0 1.0 0.00 0.00 0.00 96 1016.4
20240304074526 65 48 0.0 1.0 0.00 0.00 0.00 96 1016.4
20240304073018 65 22 0.0 2.0 0.00 0.00 0.00 96 1016.4
20240304071517 65 144 0.0 0.0 0.00 0.00 0.00 96 1016.4
20240304070016 65 144 0.0 1.0 0.00 0.00 0.00 96 1016.3
20240304064514 65 144 0.0 0.0 0.00 0.00 0.00 96 1016.2
20240304063034 65 144 0.0 1.0 0.00 0.00 0.00 96 1016.2
20240304061514 65 215 0.0 1.0 0.00 0.00 0.00 96 1016.1
20240304060011 65 215 0.0 0.0 0.00 0.00 0.00 96 1016.2
20240304054510 66 215 0.0 1.0 0.00 0.00 0.00 96 1016.2
20240304053009 66 215 0.0 1.0 0.00 0.00 0.00 96 1016.3
20240304051506 66 215 0.0 0.0 0.00 0.00 0.00 95 1016.2
20240304050005 66 215 0.0 0.0 0.00 0.00 0.00 95 1016.2
20240304044512 66 215 0.0 0.0 0.00 0.00 0.00 95 1016.3
20240304043007 67 215 0.0 0.0 0.00 0.00 0.00 95 1016.4
20240304041503 67 215 0.0 0.0 0.00 0.00 0.00 95 1016.3
20240304040002 67 215 0.0 1.0 0.00 0.00 0.00 95 1016.5
20240304034502 67 215 0.0 0.0 0.00 0.00 0.00 94 1016.5
20240304033001 68 215 0.0 0.0 0.00 0.00 0.00 94 1016.5
20240304031501 68 215 0.0 1.0 0.00 0.00 0.00 94 1016.6
20240304030101 69 215 0.0 0.0 0.00 0.00 0.00 93 1016.6
20240304024600 69 215 0.0 0.0 0.00 0.00 0.00 94 1016.9
20240304023100 70 215 0.0 1.0 0.00 0.00 0.00 93 1016.9
20240304021559 70 288 0.0 1.0 0.00 0.00 0.00 93 1016.8
20240304020201 70 288 0.0 1.0 0.00 0.00 0.00 93 1016.9
20240304014558 70 172 0.0 1.0 0.00 0.00 0.00 93 1017.0
20240304013056 70 139 0.0 2.0 0.00 0.00 0.00 92 1016.7
20240304011556 70 53 0.0 4.0 0.00 0.00 0.00 92 1016.9
20240304010056 70 46 1.0 4.0 0.00 0.00 0.00 92 1016.6
20240304004555 70 59 0.0 2.0 0.00 0.00 0.00 91 1016.8
20240304003054 70 77 1.0 3.0 0.00 0.00 0.00 91 1016.6
20240304001553 70 190 0.0 3.0 0.00 0.00 0.00 90 1016.5
20240304000053 71 51 0.0 4.0 0.00 0.00 0.00 90 1016.5
20240303234553 71 161 0.0 4.0 0.00 0.00 0.00 89 1016.1
20240303233052 71 103 0.0 6.0 0.00 0.00 0.00 89 1016.2
20240303231629 71 212 0.0 4.0 0.00 0.00 0.00 88 1015.8
20240303230053 71 264 1.0 8.0 0.00 0.00 0.00 88 1015.7
20240303224550 72 148 1.0 10.0 0.00 0.00 0.00 87 1015.9
20240303223049 72 134 0.0 4.0 0.00 0.00 0.00 86 1016.0
20240303221552 72 132 1.0 7.0 0.00 0.00 0.00 86 1016.0
20240303220052 72 192 2.0 6.0 0.00 0.00 0.00 86 1016.0
20240303214549 73 167 2.0 11.0 0.00 0.00 0.00 86 1016.0
20240303213058 73 66 2.0 8.0 0.00 0.00 0.00 84 1015.8
20240303211547 73 96 3.0 10.0 0.00 0.00 0.00 84 1016.1
20240303210046 73 36 2.0 8.0 0.00 0.00 0.00 82 1016.1
20240303204549 74 60 1.0 9.0 0.00 0.00 0.00 82 1015.7
20240303203045 75 53 2.0 10.0 0.00 0.00 0.00 82 1015.6
20240303201544 74 65 5.0 14.0 0.00 0.00 0.00 82 1015.6
20240303200046 75 50 5.0 12.0 0.00 0.00 0.00 81 1015.7
20240303194549 75 10 4.0 9.0 0.00 0.00 0.00 83 1015.7
20240303193043 76 46 5.0 10.0 0.00 0.00 0.00 81 1015.9
20240303191538 76 47 4.0 16.0 0.00 0.00 0.00 80 1016.1
20240303190037 76 58 5.0 12.0 0.00 0.00 0.00 80 1016.4
20240303184537 76 356 6.0 13.0 0.00 0.00 0.00 80 1016.6
20240303183045 75 10 4.0 12.0 0.00 0.00 0.00 84 1016.8
20240303181541 73 98 3.0 12.0 0.00 0.00 0.00 85 1017.0
20240303180051 71 60 6.0 11.0 0.00 0.00 0.00 87 1017.3
20240303174535 70 51 2.0 9.0 0.00 0.00 0.00 90 1017.5
20240303173048 71 21 5.0 12.0 0.00 0.00 0.00 88 1017.7
20240303171532 72 343 5.0 11.0 0.00 0.00 0.00 87 1017.8
20240303170030 73 31 7.0 12.0 0.00 0.00 0.00 86 1017.9
20240303164531 75 41 5.0 11.0 0.00 0.00 0.00 84 1017.8
20240303163029 79 295 0.0 2.0 0.00 0.00 0.00 75 1017.8
20240303161536 79 143 2.0 3.0 0.00 0.00 0.00 75 1018.1
20240303160028 79 217 0.0 2.0 0.00 0.00 0.00 77 1018.1
20240303154533 79 196 2.0 6.0 0.00 0.00 0.00 78 1018.2
20240303153023 78 192 1.0 6.0 0.00 0.00 0.00 82 1018.4
20240303151521 77 179 0.0 6.0 0.00 0.00 0.00 84 1018.5
20240303150017 75 181 1.0 4.0 0.00 0.00 0.00 86 1018.6
20240303144516 75 148 0.0 4.0 0.00 0.00 0.00 88 1018.6
20240303143014 74 159 0.0 1.0 0.00 0.00 0.00 91 1018.5
20240303141512 73 160 0.0 1.0 0.00 0.00 0.00 93 1018.5
20240303140007 72 139 0.0 1.0 0.00 0.00 0.00 95 1018.3
20240303134505 71 138 0.0 0.0 0.00 0.00 0.00 96 1018.2
20240303133111 70 138 0.0 0.0 0.00 0.00 0.00 97 1018.3
20240303131556 69 165 0.0 1.0 0.00 0.00 0.00 96 1018.1
20240303130104 69 165 0.0 0.0 0.00 0.00 0.00 97 1017.7
20240303124555 68 165 0.0 0.0 0.00 0.00 0.00 97 1017.5
20240303123054 67 165 0.0 1.0 0.00 0.00 0.00 96 1017.3
20240303121552 67 162 0.0 0.0 0.00 0.00 0.00 97 1017.3
20240303120051 66 162 0.0 0.0 0.00 0.00 0.00 96 1017.1
20240303114552 66 162 0.0 0.0 0.00 0.00 0.00 96 1016.9
20240303113052 66 162 0.0 0.0 0.00 0.00 0.00 96 1016.9
20240303111548 66 162 0.0 0.0 0.00 0.00 0.00 96 1016.7
20240303110046 66 162 0.0 0.0 0.00 0.00 0.00 96 1016.8
20240303104546 67 162 0.0 0.0 0.00 0.00 0.00 96 1017.0
20240303103046 66 162 0.0 0.0 0.00 0.00 0.00 96 1016.8
20240303101547 67 188 0.0 0.0 0.00 0.00 0.00 96 1016.8
20240303100054 67 188 0.0 0.0 0.00 0.00 0.00 96 1016.8
20240303094546 67 189 0.0 0.0 0.00 0.00 0.00 96 1016.8
20240303093042 67 189 0.0 0.0 0.00 0.00 0.00 96 1016.8
20240303091544 67 189 0.0 0.0 0.00 0.00 0.00 96 1016.8
20240303090039 68 189 0.0 0.0 0.00 0.00 0.00 95 1016.8
20240303084540 68 189 0.0 0.0 0.00 0.00 0.00 95 1016.8